createdAt,value
2018-09-13T00:02:26.088Z,96.40
2018-09-13T00:04:56.249Z,97.00
2018-09-13T00:07:24.753Z,97.00
2018-09-13T00:09:53.277Z,97.10
2018-09-13T00:12:21.819Z,96.70
2018-09-13T00:14:50.429Z,97.20
2018-09-13T00:17:19.929Z,97.30
2018-09-13T00:19:48.453Z,97.60
2018-09-13T00:22:16.992Z,97.50
2018-09-13T00:24:45.439Z,98.10
2018-09-13T00:27:14.610Z,98.30
2018-09-13T00:29:43.009Z,98.80
2018-09-13T00:32:11.753Z,99.20
2018-09-13T00:34:40.260Z,99.30
2018-09-13T00:37:08.777Z,98.30
2018-09-13T00:39:38.159Z,98.50
2018-09-13T00:42:07.447Z,98.80
2018-09-13T00:44:36.915Z,98.70
2018-09-13T00:47:09.550Z,99.00
2018-09-13T00:49:38.421Z,98.50
2018-09-13T00:52:07.676Z,98.60
2018-09-13T00:54:36.189Z,98.70
2018-09-13T00:57:04.621Z,99.50
2018-09-13T00:59:33.363Z,99.40
2018-09-13T01:02:01.926Z,98.80
2018-09-13T01:04:30.345Z,98.90
2018-09-13T01:06:59.594Z,98.70
2018-09-13T01:09:28.065Z,99.20
2018-09-13T01:11:56.628Z,99.30
2018-09-13T01:14:25.813Z,98.70
2018-09-13T01:16:54.324Z,99.80
2018-09-13T01:19:23.420Z,99.80
2018-09-13T01:21:51.929Z,99.90
2018-09-13T01:24:20.789Z,99.50
2018-09-13T01:26:49.288Z,99.60
2018-09-13T01:29:18.001Z,99.90
2018-09-13T01:31:46.747Z,99.80
2018-09-13T01:34:15.249Z,99.90
2018-09-13T01:36:43.683Z,99.10
2018-09-13T01:39:12.965Z,98.70
2018-09-13T01:41:41.388Z,97.50
2018-09-13T01:44:09.980Z,98.10
2018-09-13T01:46:39.120Z,97.20
2018-09-13T01:49:07.695Z,97.30
2018-09-13T01:51:36.352Z,97.60
2018-09-13T01:54:04.964Z,98.40
2018-09-13T01:56:33.468Z,98.10
2018-09-13T01:59:02.013Z,96.80
2018-09-13T02:01:30.405Z,96.90
2018-09-13T02:03:58.940Z,97.70
2018-09-13T02:06:27.501Z,97.00
2018-09-13T02:08:56.069Z,97.20
2018-09-13T02:11:24.545Z,96.10
2018-09-13T02:13:53.845Z,97.30
2018-09-13T02:16:23.165Z,97.10
2018-09-13T02:18:51.860Z,96.90
2018-09-13T02:21:20.521Z,97.40
2018-09-13T02:23:49.152Z,97.20
2018-09-13T02:26:17.908Z,97.70
2018-09-13T02:28:46.475Z,97.80
2018-09-13T02:31:15.049Z,97.50
2018-09-13T02:33:43.553Z,97.70
2018-09-13T02:36:11.924Z,97.70
2018-09-13T02:38:40.382Z,97.60
2018-09-13T02:41:09.483Z,98.50
2018-09-13T02:43:37.947Z,98.00
2018-09-13T02:46:06.533Z,97.50
2018-09-13T02:48:35.679Z,97.10
2018-09-13T02:51:04.119Z,97.50
2018-09-13T02:53:32.880Z,97.40
2018-09-13T02:56:01.300Z,97.40
2018-09-13T02:58:30.164Z,98.40
2018-09-13T03:00:58.568Z,98.30
2018-09-13T03:03:27.092Z,99.10
2018-09-13T03:05:55.604Z,98.90
2018-09-13T03:08:24.144Z,98.80
2018-09-13T03:10:53.340Z,99.20
2018-09-13T03:13:22.004Z,99.20
2018-09-13T03:15:50.594Z,99.20
2018-09-13T03:18:19.148Z,99.00
2018-09-13T03:20:47.756Z,99.10
2018-09-13T03:23:16.236Z,99.60
2018-09-13T03:25:44.721Z,99.60
2018-09-13T03:28:13.735Z,99.50
2018-09-13T03:30:42.441Z,98.60
2018-09-13T03:33:11.064Z,99.00
2018-09-13T03:35:40.136Z,98.50
2018-09-13T03:38:08.545Z,98.20
2018-09-13T03:40:37.106Z,98.30
2018-09-13T03:43:05.618Z,98.50
2018-09-13T03:45:34.076Z,97.20
2018-09-13T03:48:02.567Z,98.20
2018-09-13T03:50:31.596Z,97.90
2018-09-13T03:52:59.988Z,97.80
2018-09-13T03:55:28.728Z,97.80
2018-09-13T03:57:58.060Z,98.30
2018-09-13T04:00:26.693Z,98.90
2018-09-13T04:02:55.169Z,99.00
2018-09-13T04:05:24.201Z,98.20
2018-09-13T04:07:52.956Z,98.20
2018-09-13T04:10:21.670Z,98.20
2018-09-13T04:12:50.093Z,98.50
2018-09-13T04:15:19.525Z,98.50
2018-09-13T04:17:48.852Z,98.20
2018-09-13T04:20:17.224Z,98.30
2018-09-13T04:22:45.787Z,98.30
2018-09-13T04:25:14.295Z,98.50
2018-09-13T04:27:42.797Z,98.60
2018-09-13T04:30:12.144Z,99.20
2018-09-13T04:32:41.301Z,99.10
2018-09-13T04:35:09.798Z,98.50
2018-09-13T04:37:38.353Z,98.50
2018-09-13T04:40:06.865Z,99.00
2018-09-13T04:42:35.581Z,99.10
2018-09-13T04:45:04.324Z,98.90
2018-09-13T04:47:32.692Z,99.60
2018-09-13T04:50:01.328Z,99.70
2018-09-13T04:52:29.772Z,99.00
2018-09-13T04:54:58.253Z,99.40
2018-09-13T04:57:27.186Z,98.80
2018-09-13T04:59:56.445Z,98.80
2018-09-13T05:02:24.945Z,98.30
2018-09-13T05:04:54.104Z,98.00
2018-09-13T05:07:22.586Z,98.00
2018-09-13T05:09:51.083Z,97.50
2018-09-13T05:12:19.469Z,97.90
2018-09-13T05:14:47.869Z,97.70
2018-09-13T05:17:16.267Z,98.40
2018-09-13T05:19:44.651Z,98.50
2018-09-13T05:22:13.145Z,98.10
2018-09-13T05:24:42.054Z,98.20
2018-09-13T05:27:10.711Z,98.00
2018-09-13T05:29:39.346Z,98.20
2018-09-13T05:32:08.017Z,98.70
2018-09-13T05:34:36.439Z,98.90
2018-09-13T05:37:04.841Z,98.70
2018-09-13T05:39:34.145Z,98.00
2018-09-13T05:42:02.639Z,98.50
2018-09-13T05:44:31.402Z,98.70
2018-09-13T05:46:59.874Z,98.30
2018-09-13T05:49:28.563Z,98.20
2018-09-13T05:51:57.561Z,98.00
2018-09-13T05:54:26.288Z,98.20
2018-09-13T05:56:54.757Z,98.40
2018-09-13T05:59:23.261Z,99.20
2018-09-13T06:01:52.217Z,99.20
2018-09-13T06:04:20.642Z,99.30
2018-09-13T06:06:49.129Z,99.20
2018-09-13T06:09:18.593Z,99.00
2018-09-13T06:11:47.133Z,98.60
2018-09-13T06:14:15.718Z,99.30
2018-09-13T06:16:44.313Z,98.60
2018-09-13T06:19:12.784Z,98.90
2018-09-13T06:21:42.029Z,98.60
2018-09-13T06:24:11.206Z,98.50
2018-09-13T06:26:39.620Z,99.00
2018-09-13T06:29:08.042Z,99.40
2018-09-13T06:31:36.669Z,99.00
2018-09-13T06:34:05.517Z,98.30
2018-09-13T06:36:33.929Z,98.40
2018-09-13T06:39:02.436Z,99.10
2018-09-13T06:41:31.560Z,98.60
2018-09-13T06:44:00.345Z,97.80
2018-09-13T06:46:28.924Z,98.50
2018-09-13T06:48:57.499Z,98.80
2018-09-13T06:51:26.660Z,97.40
2018-09-13T06:53:55.084Z,97.60
2018-09-13T06:56:23.522Z,97.40
2018-09-13T06:58:51.950Z,97.40
2018-09-13T07:01:21.081Z,97.60
2018-09-13T07:03:50.037Z,96.90
2018-09-13T07:06:18.732Z,97.30
2018-09-13T07:08:47.436Z,97.80
2018-09-13T07:11:16.025Z,97.50
2018-09-13T07:13:44.651Z,96.50
2018-09-13T07:16:13.057Z,96.70
2018-09-13T07:18:41.810Z,96.80
2018-09-13T07:21:10.408Z,96.90
2018-09-13T07:23:39.193Z,96.40
2018-09-13T07:26:08.511Z,96.50
2018-09-13T07:28:37.284Z,96.30
2018-09-13T07:31:05.797Z,96.20
2018-09-13T07:43:32.720Z,95.90
2018-09-13T07:53:26.319Z,96.30
2018-09-13T07:55:54.821Z,96.10
2018-09-13T07:58:23.347Z,96.10
2018-09-13T08:03:20.637Z,96.70
2018-09-13T08:15:43.220Z,96.50
2018-09-13T08:18:12.500Z,96.90
2018-09-13T08:20:41.045Z,96.40
2018-09-13T08:23:09.652Z,96.40
2018-09-13T08:25:38.139Z,96.40
2018-09-13T08:28:06.990Z,96.20
2018-09-13T08:33:04.440Z,96.20
2018-09-13T08:42:57.564Z,96.00
2018-09-13T08:47:54.605Z,97.50
2018-09-13T08:52:51.684Z,97.10
2018-09-13T08:55:20.953Z,98.20
2018-09-13T08:57:49.354Z,96.80
2018-09-13T09:00:18.688Z,97.60
2018-09-13T09:02:47.176Z,98.60
2018-09-13T09:05:16.354Z,97.70
2018-09-13T09:07:46.401Z,98.20
2018-09-13T09:10:14.866Z,98.40
2018-09-13T09:12:43.413Z,98.30
2018-09-13T09:15:11.913Z,98.00
2018-09-13T09:17:40.417Z,98.00
2018-09-13T09:20:08.849Z,97.90
2018-09-13T09:22:37.400Z,98.40
2018-09-13T09:25:05.893Z,97.30
2018-09-13T09:27:34.879Z,97.10
2018-09-13T09:30:04.523Z,97.60
2018-09-13T09:32:33.164Z,98.00
2018-09-13T09:35:01.760Z,98.00
2018-09-13T09:37:30.228Z,98.30
2018-09-13T09:39:58.679Z,98.40
2018-09-13T09:42:27.207Z,99.00
2018-09-13T09:44:56.506Z,98.70
2018-09-13T09:47:25.435Z,98.10
2018-09-13T09:49:54.215Z,99.50
2018-09-13T09:52:22.919Z,99.00
2018-09-13T09:54:51.297Z,98.40
2018-09-13T09:57:19.725Z,99.60
2018-09-13T09:59:48.327Z,99.30
2018-09-13T10:02:18.877Z,98.40
2018-09-13T10:04:48.361Z,98.90
2018-09-13T10:07:16.796Z,98.20
2018-09-13T10:09:45.481Z,97.50
2018-09-13T10:12:14.660Z,98.00
2018-09-13T10:14:47.831Z,98.10
2018-09-13T10:17:21.744Z,96.50
2018-09-13T10:19:55.680Z,96.40
2018-09-13T10:22:30.275Z,97.00
2018-09-13T10:25:04.409Z,96.70
2018-09-13T10:27:38.474Z,97.40
2018-09-13T10:30:12.725Z,97.20
2018-09-13T10:35:20.440Z,97.50
2018-09-13T10:37:54.393Z,96.80
2018-09-13T10:40:28.602Z,97.70
2018-09-13T10:43:02.452Z,97.10
2018-09-13T10:45:36.273Z,98.10
2018-09-13T10:48:10.324Z,96.90
2018-09-13T10:50:44.133Z,96.80
2018-09-13T10:55:48.360Z,97.30
2018-09-13T10:58:16.741Z,97.30
2018-09-13T11:00:45.997Z,96.60
2018-09-13T11:03:15.165Z,96.40
2018-09-13T18:14:37.609Z,94.90
2018-09-13T18:17:06.315Z,96.40
2018-09-13T18:19:35.314Z,96.00
2018-09-13T18:22:03.955Z,96.30
2018-09-13T18:24:32.753Z,96.40
2018-09-13T18:27:01.363Z,97.00
2018-09-13T18:29:30.185Z,96.80
2018-09-13T18:31:58.648Z,96.70
2018-09-13T18:34:27.405Z,96.70
2018-09-13T18:36:57.008Z,96.60
2018-09-13T18:39:25.664Z,96.80
2018-09-13T18:41:54.352Z,96.80
2018-09-13T18:44:22.958Z,96.80
2018-09-13T18:46:51.743Z,96.80
2018-09-13T18:49:20.445Z,96.60
2018-09-13T18:51:49.013Z,96.90
2018-09-13T18:54:17.750Z,97.00
2018-09-13T18:56:46.336Z,97.10
2018-09-13T18:59:14.981Z,97.10
2018-09-13T19:01:44.270Z,97.20
2018-09-13T19:04:12.859Z,97.40
2018-09-13T19:06:41.451Z,97.30
2018-09-13T19:09:11.038Z,97.30
2018-09-13T19:11:39.550Z,97.30
2018-09-13T19:14:08.029Z,97.20
2018-09-13T19:16:36.710Z,97.40
2018-09-13T19:19:05.433Z,97.50
2018-09-13T19:21:34.830Z,97.60
2018-09-13T19:24:03.489Z,97.70
2018-09-13T19:26:31.937Z,97.70
2018-09-13T19:29:00.725Z,97.60
2018-09-13T19:31:29.864Z,97.70
2018-09-13T19:33:59.049Z,97.70
2018-09-13T19:36:27.706Z,97.70
2018-09-13T19:38:56.293Z,97.90
2018-09-13T19:41:24.908Z,97.80
2018-09-13T19:43:53.446Z,97.70
2018-09-13T19:46:22.146Z,97.60
2018-09-13T19:48:50.817Z,97.80
2018-09-13T19:51:20.033Z,97.80
2018-09-13T19:53:48.489Z,98.20
2018-09-13T19:56:17.121Z,98.50
2018-09-13T19:58:45.878Z,98.30
2018-09-13T20:01:14.614Z,98.30
2018-09-13T20:03:43.290Z,98.10
2018-09-13T20:06:11.929Z,98.00
2018-09-13T20:08:41.393Z,98.00
2018-09-13T20:11:10.665Z,98.00
2018-09-13T20:13:39.234Z,98.30
2018-09-13T20:16:07.757Z,98.60
2018-09-13T20:18:36.439Z,98.60
2018-09-13T20:21:05.089Z,98.60
2018-09-13T20:23:34.299Z,99.00
2018-09-13T20:26:02.929Z,98.80
2018-09-13T20:28:32.432Z,98.70
2018-09-13T20:31:01.071Z,98.70
2018-09-13T20:33:29.588Z,99.10
2018-09-13T20:35:58.242Z,98.80
2018-09-13T20:38:26.874Z,98.80
2018-09-13T20:40:56.037Z,98.70
2018-09-13T20:43:24.689Z,98.60
2018-09-13T20:45:54.142Z,98.60
2018-09-13T20:48:22.716Z,98.40
2018-09-13T20:50:51.586Z,98.60
2018-09-13T20:53:20.010Z,98.40
2018-09-13T20:55:48.792Z,98.50
2018-09-13T20:58:17.321Z,98.50
2018-09-13T21:00:46.115Z,98.40
2018-09-13T21:03:14.673Z,98.50
2018-09-13T21:05:43.211Z,98.70
2018-09-13T21:08:11.809Z,98.70
2018-09-13T21:10:40.580Z,99.00
2018-09-13T21:13:09.185Z,98.90
2018-09-13T21:15:37.609Z,98.90
2018-09-13T21:18:06.229Z,98.70
2018-09-13T21:20:34.845Z,98.60
2018-09-13T21:23:03.400Z,98.70
2018-09-13T21:25:31.831Z,98.50
2018-09-13T21:28:01.211Z,98.30
2018-09-13T21:30:29.771Z,98.20
2018-09-13T21:32:58.188Z,98.30
2018-09-13T21:35:27.167Z,98.30
2018-09-13T21:37:55.797Z,98.30
2018-09-13T21:40:24.645Z,98.50
2018-09-13T21:42:53.223Z,98.70
2018-09-13T21:45:22.482Z,98.60
2018-09-13T21:47:51.008Z,98.50
2018-09-13T21:50:20.266Z,98.30
2018-09-13T21:52:48.870Z,98.20
2018-09-13T21:55:17.503Z,98.10
2018-09-13T21:57:46.141Z,98.10
2018-09-13T22:00:14.713Z,98.00
2018-09-13T22:02:43.108Z,98.20
2018-09-13T22:05:11.673Z,98.00
2018-09-13T22:07:40.220Z,98.10
2018-09-13T22:10:08.957Z,98.00
2018-09-13T22:12:37.445Z,98.00
2018-09-13T22:15:06.543Z,98.00
2018-09-13T22:17:35.626Z,98.10
2018-09-13T22:20:04.324Z,98.10
2018-09-13T22:22:32.722Z,98.20
2018-09-13T22:25:01.276Z,98.30
2018-09-13T22:27:29.903Z,98.30
2018-09-13T22:29:58.388Z,98.90
2018-09-13T22:32:26.888Z,98.90
2018-09-13T22:34:55.406Z,99.00
2018-09-13T22:37:23.964Z,99.10
2018-09-13T22:39:52.469Z,99.60
2018-09-13T22:42:21.346Z,99.70
2018-09-13T22:44:49.768Z,99.50
2018-09-13T22:47:18.324Z,99.90
2018-09-13T22:49:46.716Z,99.90
2018-09-13T22:52:15.162Z,99.80
2018-09-13T22:54:43.780Z,99.90
2018-09-13T22:57:13.415Z,99.90
2018-09-13T22:59:42.172Z,99.90
2018-09-13T23:02:11.238Z,99.90
2018-09-13T23:04:39.660Z,99.90
2018-09-13T23:07:08.528Z,99.80
2018-09-13T23:09:37.177Z,99.70
